sensor_id;sensor_type;location;lat;lon;timestamp;temperature;humidity
52439;DHT22;38359;53.150;6.504;2023-03-15T00:01:37;3.20;99.90
52439;DHT22;38359;53.150;6.504;2023-03-15T00:12:03;3.60;99.90
52439;DHT22;38359;53.150;6.504;2023-03-15T00:22:30;3.70;99.90
52439;DHT22;38359;53.150;6.504;2023-03-15T00:32:55;3.70;99.90
52439;DHT22;38359;53.150;6.504;2023-03-15T00:43:21;3.20;99.90
52439;DHT22;38359;53.150;6.504;2023-03-15T00:53:49;4.50;99.90
52439;DHT22;38359;53.150;6.504;2023-03-15T01:04:16;3.20;99.90
52439;DHT22;38359;53.150;6.504;2023-03-15T01:14:41;3.10;99.90
52439;DHT22;38359;53.150;6.504;2023-03-15T01:25:08;3.20;99.90
52439;DHT22;38359;53.150;6.504;2023-03-15T01:35:34;3.10;99.90
52439;DHT22;38359;53.150;6.504;2023-03-15T01:56:49;3.20;99.90
52439;DHT22;38359;53.150;6.504;2023-03-15T02:07:19;2.60;99.90
52439;DHT22;38359;53.150;6.504;2023-03-15T02:17:47;2.50;99.90
52439;DHT22;38359;53.150;6.504;2023-03-15T02:28:14;2.70;99.90
52439;DHT22;38359;53.150;6.504;2023-03-15T02:38:40;2.80;99.90
52439;DHT22;38359;53.150;6.504;2023-03-15T02:49:06;2.40;99.90
52439;DHT22;38359;53.150;6.504;2023-03-15T02:59:32;2.60;99.90
52439;DHT22;38359;53.150;6.504;2023-03-15T03:09:58;2.40;99.90
52439;DHT22;38359;53.150;6.504;2023-03-15T03:20:24;2.40;99.90
52439;DHT22;38359;53.150;6.504;2023-03-15T03:30:52;1.50;99.90
52439;DHT22;38359;53.150;6.504;2023-03-15T03:41:19;2.10;99.90
52439;DHT22;38359;53.150;6.504;2023-03-15T03:51:45;2.10;99.90
52439;DHT22;38359;53.150;6.504;2023-03-15T04:02:11;2.20;99.90
52439;DHT22;38359;53.150;6.504;2023-03-15T04:12:37;1.80;99.90
52439;DHT22;38359;53.150;6.504;2023-03-15T04:23:03;1.80;99.90
52439;DHT22;38359;53.150;6.504;2023-03-15T04:33:31;2.00;99.90
52439;DHT22;38359;53.150;6.504;2023-03-15T04:43:57;2.40;99.90
52439;DHT22;38359;53.150;6.504;2023-03-15T04:54:23;1.50;99.90
52439;DHT22;38359;53.150;6.504;2023-03-15T05:04:49;1.80;99.90
52439;DHT22;38359;53.150;6.504;2023-03-15T05:15:15;1.40;99.90
52439;DHT22;38359;53.150;6.504;2023-03-15T05:25:41;1.70;99.90
52439;DHT22;38359;53.150;6.504;2023-03-15T05:36:07;1.60;99.90
52439;DHT22;38359;53.150;6.504;2023-03-15T05:46:33;1.20;99.90
52439;DHT22;38359;53.150;6.504;2023-03-15T05:56:59;1.20;99.90
52439;DHT22;38359;53.150;6.504;2023-03-15T06:07:25;1.80;99.90
52439;DHT22;38359;53.150;6.504;2023-03-15T06:17:51;2.00;99.90
52439;DHT22;38359;53.150;6.504;2023-03-15T06:28:16;2.00;99.90
52439;DHT22;38359;53.150;6.504;2023-03-15T06:38:42;1.80;99.90
52439;DHT22;38359;53.150;6.504;2023-03-15T06:49:08;1.90;99.90
52439;DHT22;38359;53.150;6.504;2023-03-15T06:59:35;1.70;99.90
52439;DHT22;38359;53.150;6.504;2023-03-15T07:10:01;2.00;99.90
52439;DHT22;38359;53.150;6.504;2023-03-15T07:20:27;2.50;99.90
52439;DHT22;38359;53.150;6.504;2023-03-15T07:31:00;2.30;99.90
52439;DHT22;38359;53.150;6.504;2023-03-15T07:41:28;3.20;99.90
52439;DHT22;38359;53.150;6.504;2023-03-15T07:51:53;3.30;99.90
52439;DHT22;38359;53.150;6.504;2023-03-15T08:02:19;3.70;99.90
52439;DHT22;38359;53.150;6.504;2023-03-15T08:12:45;3.30;99.90
52439;DHT22;38359;53.150;6.504;2023-03-15T08:23:11;3.90;99.90
52439;DHT22;38359;53.150;6.504;2023-03-15T08:33:40;4.50;99.90
52439;DHT22;38359;53.150;6.504;2023-03-15T08:44:06;4.30;99.90
52439;DHT22;38359;53.150;6.504;2023-03-15T08:54:32;4.50;99.90
52439;DHT22;38359;53.150;6.504;2023-03-15T09:04:59;4.80;99.90
52439;DHT22;38359;53.150;6.504;2023-03-15T09:15:25;5.30;99.90
52439;DHT22;38359;53.150;6.504;2023-03-15T09:25:51;5.40;99.90
52439;DHT22;38359;53.150;6.504;2023-03-15T09:36:16;5.50;99.90
52439;DHT22;38359;53.150;6.504;2023-03-15T09:47:03;5.60;99.90
52439;DHT22;38359;53.150;6.504;2023-03-15T09:57:50;6.00;99.90
52439;DHT22;38359;53.150;6.504;2023-03-15T10:08:24;6.20;99.90
52439;DHT22;38359;53.150;6.504;2023-03-15T10:19:16;6.20;99.90
52439;DHT22;38359;53.150;6.504;2023-03-15T10:29:43;6.40;99.90
52439;DHT22;38359;53.150;6.504;2023-03-15T10:40:11;6.50;99.90
52439;DHT22;38359;53.150;6.504;2023-03-15T10:50:40;6.70;99.90
52439;DHT22;38359;53.150;6.504;2023-03-15T11:01:10;6.70;99.90
52439;DHT22;38359;53.150;6.504;2023-03-15T11:12:08;7.10;99.90
52439;DHT22;38359;53.150;6.504;2023-03-15T11:22:35;7.10;99.90
52439;DHT22;38359;53.150;6.504;2023-03-15T11:33:06;6.90;99.90
52439;DHT22;38359;53.150;6.504;2023-03-15T11:54:30;7.70;99.90
52439;DHT22;38359;53.150;6.504;2023-03-15T12:04:56;8.00;99.90
52439;DHT22;38359;53.150;6.504;2023-03-15T12:25:55;7.90;99.90
52439;DHT22;38359;53.150;6.504;2023-03-15T12:36:36;8.10;99.90
52439;DHT22;38359;53.150;6.504;2023-03-15T12:47:05;8.60;99.90
52439;DHT22;38359;53.150;6.504;2023-03-15T12:57:38;8.40;99.90
52439;DHT22;38359;53.150;6.504;2023-03-15T13:08:20;8.00;99.90
52439;DHT22;38359;53.150;6.504;2023-03-15T13:18:55;9.00;99.90
52439;DHT22;38359;53.150;6.504;2023-03-15T13:29:31;9.20;99.90
52439;DHT22;38359;53.150;6.504;2023-03-15T13:40:04;9.40;99.90
52439;DHT22;38359;53.150;6.504;2023-03-15T13:50:36;9.40;99.90
52439;DHT22;38359;53.150;6.504;2023-03-15T14:01:05;9.80;99.90
52439;DHT22;38359;53.150;6.504;2023-03-15T14:11:38;10.20;99.90
52439;DHT22;38359;53.150;6.504;2023-03-15T14:22:17;9.80;99.90
52439;DHT22;38359;53.150;6.504;2023-03-15T14:32:52;10.70;99.90
52439;DHT22;38359;53.150;6.504;2023-03-15T14:43:20;11.20;99.90
52439;DHT22;38359;53.150;6.504;2023-03-15T14:53:50;10.50;99.90
52439;DHT22;38359;53.150;6.504;2023-03-15T15:04:18;10.80;99.90
52439;DHT22;38359;53.150;6.504;2023-03-15T15:14:44;10.10;99.90
52439;DHT22;38359;53.150;6.504;2023-03-15T15:25:23;11.20;99.90
52439;DHT22;38359;53.150;6.504;2023-03-15T15:35:54;11.00;99.90
52439;DHT22;38359;53.150;6.504;2023-03-15T15:46:21;10.30;99.90
52439;DHT22;38359;53.150;6.504;2023-03-15T15:56:50;9.70;99.90
52439;DHT22;38359;53.150;6.504;2023-03-15T16:07:18;10.10;99.90
52439;DHT22;38359;53.150;6.504;2023-03-15T16:17:44;9.50;99.90
52439;DHT22;38359;53.150;6.504;2023-03-15T16:28:10;8.50;99.90
52439;DHT22;38359;53.150;6.504;2023-03-15T16:38:36;8.20;99.90
52439;DHT22;38359;53.150;6.504;2023-03-15T16:49:02;8.10;99.90
52439;DHT22;38359;53.150;6.504;2023-03-15T16:59:28;8.50;99.90
52439;DHT22;38359;53.150;6.504;2023-03-15T17:09:54;7.80;99.90
52439;DHT22;38359;53.150;6.504;2023-03-15T17:20:20;7.50;99.90
52439;DHT22;38359;53.150;6.504;2023-03-15T17:30:46;7.30;99.90
52439;DHT22;38359;53.150;6.504;2023-03-15T17:41:22;7.20;99.90
52439;DHT22;38359;53.150;6.504;2023-03-15T17:51:51;7.20;99.90
52439;DHT22;38359;53.150;6.504;2023-03-15T18:02:17;7.20;99.90
52439;DHT22;38359;53.150;6.504;2023-03-15T18:12:47;7.00;99.90
52439;DHT22;38359;53.150;6.504;2023-03-15T18:23:15;6.70;99.90
52439;DHT22;38359;53.150;6.504;2023-03-15T18:33:45;6.30;99.90
52439;DHT22;38359;53.150;6.504;2023-03-15T18:44:11;6.00;99.90
52439;DHT22;38359;53.150;6.504;2023-03-15T18:54:37;5.70;99.90
52439;DHT22;38359;53.150;6.504;2023-03-15T19:05:03;5.40;99.90
52439;DHT22;38359;53.150;6.504;2023-03-15T19:15:29;5.20;99.90
52439;DHT22;38359;53.150;6.504;2023-03-15T19:25:55;5.10;99.90
52439;DHT22;38359;53.150;6.504;2023-03-15T19:36:21;5.00;99.90
52439;DHT22;38359;53.150;6.504;2023-03-15T19:46:47;4.80;99.90
52439;DHT22;38359;53.150;6.504;2023-03-15T19:57:13;4.70;99.90
52439;DHT22;38359;53.150;6.504;2023-03-15T20:07:42;4.70;99.90
52439;DHT22;38359;53.150;6.504;2023-03-15T20:18:08;4.50;99.90
52439;DHT22;38359;53.150;6.504;2023-03-15T20:28:38;4.10;99.90
52439;DHT22;38359;53.150;6.504;2023-03-15T20:39:06;4.00;99.90
52439;DHT22;38359;53.150;6.504;2023-03-15T20:49:32;3.80;99.90
52439;DHT22;38359;53.150;6.504;2023-03-15T20:59:58;3.90;99.90
52439;DHT22;38359;53.150;6.504;2023-03-15T21:10:24;4.00;99.90
52439;DHT22;38359;53.150;6.504;2023-03-15T21:21:00;3.90;99.90
52439;DHT22;38359;53.150;6.504;2023-03-15T21:31:27;3.80;99.90
52439;DHT22;38359;53.150;6.504;2023-03-15T21:41:53;3.70;99.90
52439;DHT22;38359;53.150;6.504;2023-03-15T21:52:19;3.80;99.90
52439;DHT22;38359;53.150;6.504;2023-03-15T22:02:46;3.80;99.90
52439;DHT22;38359;53.150;6.504;2023-03-15T22:13:12;3.80;99.90
52439;DHT22;38359;53.150;6.504;2023-03-15T22:23:40;3.90;99.90
52439;DHT22;38359;53.150;6.504;2023-03-15T22:34:06;3.90;99.90
52439;DHT22;38359;53.150;6.504;2023-03-15T22:44:33;3.80;99.90
52439;DHT22;38359;53.150;6.504;2023-03-15T22:54:59;3.90;99.90
52439;DHT22;38359;53.150;6.504;2023-03-15T23:05:25;3.90;99.90
52439;DHT22;38359;53.150;6.504;2023-03-15T23:15:51;4.00;99.90
52439;DHT22;38359;53.150;6.504;2023-03-15T23:26:17;4.00;99.90
52439;DHT22;38359;53.150;6.504;2023-03-15T23:36:44;4.10;99.90
52439;DHT22;38359;53.150;6.504;2023-03-15T23:47:10;4.00;99.90
52439;DHT22;38359;53.150;6.504;2023-03-15T23:57:36;4.10;99.90
